createdAt,value
2018-06-28T05:01:53.131Z,16.78
2018-06-28T05:06:56.469Z,16.74
2018-06-28T05:11:59.803Z,16.81
2018-06-28T05:17:04.173Z,16.91
2018-06-28T05:22:07.506Z,16.78
2018-06-28T05:27:10.838Z,16.82
2018-06-28T05:32:14.168Z,17.02
2018-06-28T05:37:17.507Z,17.16
2018-06-28T05:42:21.612Z,17.35
2018-06-28T05:47:24.946Z,17.33
2018-06-28T05:52:29.035Z,17.34
2018-06-28T05:57:32.357Z,17.26
2018-06-28T06:02:35.686Z,17.13
2018-06-28T06:07:39.051Z,17.11
2018-06-28T06:12:42.417Z,17.16
2018-06-28T06:17:45.757Z,17.11
2018-06-28T06:22:49.087Z,16.89
2018-06-28T06:27:52.427Z,16.73
2018-06-28T06:32:55.878Z,16.42
2018-06-28T06:37:59.963Z,16.46
2018-06-28T06:43:03.391Z,16.44
2018-06-28T06:48:06.725Z,15.98
2018-06-28T06:53:10.057Z,16.12
2018-06-28T06:58:14.147Z,15.92
2018-06-28T07:03:17.479Z,15.69
2018-06-28T07:08:20.812Z,15.75
2018-06-28T07:13:24.913Z,15.90
2018-06-28T07:18:28.243Z,16.06
2018-06-28T07:23:32.342Z,16.20
2018-06-28T07:28:35.698Z,15.90
2018-06-28T07:33:39.033Z,16.04
2018-06-28T07:38:42.363Z,16.29
2018-06-28T07:43:45.690Z,16.42
2018-06-28T07:48:49.019Z,16.40
2018-06-28T07:53:52.357Z,16.28
2018-06-28T07:58:56.450Z,16.38
2018-06-28T08:03:59.779Z,16.20
2018-06-28T08:09:04.801Z,16.12
2018-06-28T08:14:12.081Z,16.07
2018-06-28T08:19:15.406Z,16.11
2018-06-28T08:24:18.739Z,16.07
2018-06-28T08:29:22.058Z,16.33
2018-06-28T08:34:25.403Z,16.29
2018-06-28T08:39:29.496Z,16.65
2018-06-28T08:44:32.826Z,16.37
2018-06-28T08:49:36.162Z,16.76
2018-06-28T08:54:40.259Z,16.68
2018-06-28T08:59:43.599Z,16.87
2018-06-28T09:04:46.928Z,16.91
2018-06-28T09:09:51.023Z,16.81
2018-06-28T09:14:54.353Z,17.13
2018-06-28T09:19:57.688Z,17.14
2018-06-28T09:25:01.787Z,17.21
2018-06-28T09:30:05.124Z,17.31
2018-06-28T09:35:09.226Z,17.30
2018-06-28T09:40:12.566Z,17.26
2018-06-28T09:45:16.707Z,16.77
2018-06-28T09:50:20.764Z,16.83
2018-06-28T09:55:24.095Z,16.69
2018-06-28T10:00:27.488Z,16.62
2018-06-28T10:05:30.791Z,16.60
2018-06-28T10:10:34.124Z,16.74
2018-06-28T10:15:37.455Z,16.60
2018-06-28T10:20:40.800Z,16.62
2018-06-28T10:25:44.903Z,16.57
2018-06-28T10:30:48.257Z,16.87
2018-06-28T10:35:51.587Z,16.73
2018-06-28T10:40:54.945Z,16.56
2018-06-28T10:45:58.285Z,16.78
2018-06-28T10:51:02.382Z,17.04
2018-06-28T10:56:05.723Z,16.62
2018-06-28T11:01:09.818Z,16.87
2018-06-28T11:06:13.146Z,16.66
2018-06-28T11:11:16.495Z,16.91
2018-06-28T11:16:19.830Z,16.73
2018-06-28T11:21:23.160Z,16.92
2018-06-28T11:26:26.495Z,16.80
2018-06-28T11:31:29.840Z,16.86
2018-06-28T11:36:33.944Z,17.22
2018-06-28T11:41:37.289Z,17.45
2018-06-28T11:46:40.620Z,17.27
2018-06-28T11:51:43.957Z,17.06
2018-06-28T11:56:47.298Z,17.09
2018-06-28T12:01:50.641Z,17.18
2018-06-28T12:06:53.979Z,17.26
2018-06-28T12:11:57.316Z,17.20
2018-06-28T12:17:00.646Z,17.27
2018-06-28T12:22:03.983Z,17.38
2018-06-28T12:27:07.327Z,17.26
2018-06-28T12:32:10.658Z,17.16
2018-06-28T12:37:13.991Z,17.19
2018-06-28T12:42:17.331Z,16.91
2018-06-28T12:47:38.267Z,16.63
2018-06-28T12:52:41.599Z,16.46
2018-06-28T12:57:44.925Z,16.51
2018-06-28T13:02:48.269Z,16.50
2018-06-28T13:07:51.606Z,16.26
2018-06-28T13:12:55.717Z,16.32
2018-06-28T13:17:59.065Z,16.24
2018-06-28T13:23:02.398Z,16.27
2018-06-28T13:28:05.732Z,16.36
2018-06-28T13:33:09.080Z,16.24
2018-06-28T13:38:13.196Z,16.29
2018-06-28T13:43:16.531Z,16.34
2018-06-28T13:48:20.629Z,16.31
2018-06-28T13:53:23.962Z,16.45
2018-06-28T13:58:28.065Z,16.38
2018-06-28T14:03:31.495Z,16.46
2018-06-28T14:08:34.766Z,16.16
2018-06-28T14:13:38.102Z,16.30
2018-06-28T14:18:41.465Z,16.31
2018-06-28T14:23:45.571Z,16.26
2018-06-28T14:28:48.909Z,16.22
2018-06-28T14:33:52.247Z,16.32
2018-06-28T14:38:55.587Z,16.55
2018-06-28T14:43:59.018Z,16.40
2018-06-28T14:49:02.376Z,16.44
2018-06-28T14:54:05.740Z,16.22
2018-06-28T14:59:09.091Z,16.13
2018-06-28T15:04:12.445Z,16.23
2018-06-28T15:09:15.773Z,16.10
2018-06-28T15:14:19.151Z,16.02
2018-06-28T15:19:25.772Z,15.77
2018-06-28T15:24:29.117Z,15.92
2018-06-28T15:29:33.211Z,15.90
2018-06-28T15:34:36.538Z,15.67
2018-06-28T15:39:39.874Z,15.90
2018-06-28T15:44:43.982Z,15.73
2018-06-28T15:49:47.329Z,15.88
2018-06-28T15:54:50.674Z,15.94
2018-06-28T16:00:09.295Z,15.90
2018-06-28T16:05:13.412Z,15.58
2018-06-28T16:15:52.096Z,15.61
2018-06-28T16:20:56.191Z,15.56
2018-06-28T16:25:59.527Z,15.72
2018-06-28T16:31:02.969Z,15.55
2018-06-28T16:36:07.234Z,15.41
2018-06-28T16:41:12.190Z,15.67
2018-06-28T16:46:15.565Z,15.58
2018-06-28T16:51:19.791Z,15.59
2018-06-28T16:56:23.135Z,15.68
2018-06-28T17:01:26.470Z,15.72
2018-06-28T17:06:29.830Z,15.62
2018-06-28T17:11:33.183Z,15.56
2018-06-28T17:16:36.547Z,15.59
2018-06-28T17:21:39.901Z,15.74
2018-06-28T17:26:43.267Z,15.59
2018-06-28T17:31:46.618Z,15.77
2018-06-28T17:36:49.964Z,15.93
2018-06-28T17:41:53.296Z,16.02
2018-06-28T17:46:56.631Z,15.91
2018-06-28T17:52:00.727Z,15.98
2018-06-28T17:57:04.080Z,16.07
2018-06-28T18:02:08.179Z,16.23
2018-06-28T18:07:11.510Z,16.19
2018-06-28T18:12:14.849Z,16.21
2018-06-28T18:17:18.189Z,16.05
2018-06-28T18:22:21.523Z,16.10
2018-06-28T18:27:24.861Z,16.27
2018-06-28T18:32:28.192Z,16.08
2018-06-28T18:37:32.292Z,16.00
2018-06-28T18:42:35.630Z,16.12
2018-06-28T18:47:39.727Z,16.16
2018-06-28T18:52:43.065Z,16.28
2018-06-28T18:57:47.162Z,16.36
2018-06-28T19:02:50.507Z,16.33
2018-06-28T19:07:54.608Z,16.40
2018-06-28T19:12:57.943Z,16.33
2018-06-28T19:18:01.281Z,16.20
2018-06-28T19:28:33.343Z,16.36
2018-06-28T19:33:36.684Z,16.30
2018-06-28T19:38:40.020Z,16.30
2018-06-28T19:43:44.139Z,16.26
2018-06-28T19:48:48.234Z,16.39
2018-06-28T19:53:51.574Z,16.35
2018-06-28T19:58:54.923Z,16.48
2018-06-28T20:04:12.858Z,16.39
2018-06-28T20:09:16.977Z,16.48
2018-06-28T20:19:55.343Z,16.47
2018-06-28T20:24:58.680Z,16.53
2018-06-28T20:35:31.399Z,16.53
2018-06-28T20:40:39.810Z,16.55
2018-06-28T20:45:43.150Z,16.59
2018-06-28T20:50:47.265Z,16.60
2018-06-28T20:55:50.716Z,16.58
2018-06-28T21:00:54.055Z,16.50
2018-06-28T21:05:57.384Z,16.58
2018-06-28T21:11:00.727Z,16.57
2018-06-28T21:16:04.062Z,16.58
2018-06-28T21:21:08.219Z,16.63
2018-06-28T21:26:11.507Z,16.62
2018-06-28T21:31:15.609Z,16.65
2018-06-28T21:36:18.960Z,16.63
2018-06-28T21:41:22.297Z,16.63
2018-06-28T21:46:25.649Z,16.64
2018-06-28T21:51:28.994Z,16.68
2018-06-28T21:56:32.355Z,16.67
2018-06-28T22:01:35.690Z,16.66
2018-06-28T22:06:39.789Z,16.68
2018-06-28T22:11:43.126Z,16.68
2018-06-28T22:16:46.467Z,16.69
2018-06-28T22:21:50.567Z,16.72
2018-06-28T22:26:53.900Z,16.72
